Time;durP1;ratioP1;P1;durP2;ratioP2;P2;SDS_P1;SDS_P2;PMS_P1;PMS_P2;Temp;Humidity;BMP_temperature;BMP_pressure;BME280_temperature;BME280_humidity;BME280_pressure;Samples;Min_cycle;Max_cycle;Signal;HPM_P1;HPM_P2
2021/06/05 00:00:53;;;;;;;20.03;18.10;;;;;;;17.94;94.71;101851.31;6526535;22;20003;-65
2021/06/05 00:03:24;;;;;;;19.90;18.10;;;;;;;17.89;94.48;101857.09;6527422;22;20000;-65
2021/06/05 00:05:59;;;;;;;19.33;17.52;;;;;;;17.92;94.71;101848.00;6534547;22;20260;-65
2021/06/05 00:08:33;;;;;;;19.05;17.27;;;;;;;17.90;94.98;101847.31;6560092;22;20075;-65
2021/06/05 00:11:07;;;;;;;21.02;19.02;;;;;;;17.87;95.30;101847.59;6531011;22;20018;-65
2021/06/05 00:13:42;;;;;;;20.65;18.65;;;;;;;17.88;94.75;101843.97;6532535;22;20027;-65
2021/06/05 00:16:20;;;;;;;19.95;17.92;;;;;;;17.91;94.30;101843.66;6557419;22;20007;-65
2021/06/05 00:18:52;;;;;;;19.73;17.90;;;;;;;17.88;94.33;101838.66;6559154;22;20306;-65
2021/06/05 00:21:25;;;;;;;21.63;19.50;;;;;;;17.88;93.71;101842.16;6558890;22;20373;-65
2021/06/05 00:23:57;;;;;;;20.85;18.73;;;;;;;17.84;93.51;101840.81;6558744;22;19999;-65
2021/06/05 00:26:29;;;;;;;19.90;17.95;;;;;;;17.84;93.85;101837.31;6558758;22;20007;-65
2021/06/05 00:29:00;;;;;;;21.08;18.88;;;;;;;17.85;94.15;101831.88;6563179;22;20037;-65
2021/06/05 00:31:32;;;;;;;21.98;19.90;;;;;;;17.83;94.37;101838.28;6534089;22;20457;-65
2021/06/05 00:34:04;;;;;;;21.92;19.90;;;;;;;17.79;94.39;101834.28;6561760;22;20010;-65
2021/06/05 00:36:36;;;;;;;20.95;18.92;;;;;;;17.82;94.06;101831.34;6563137;22;20449;-65
2021/06/05 00:39:09;;;;;;;21.93;19.73;;;;;;;17.81;93.17;101830.50;6559157;22;20003;-65
2021/06/05 00:41:41;;;;;;;22.00;19.77;;;;;;;17.77;93.65;101841.53;6560740;22;20007;-65
2021/06/05 00:44:13;;;;;;;20.90;18.98;;;;;;;17.78;93.64;101837.94;6561798;22;20002;-65
2021/06/05 00:46:45;;;;;;;21.55;19.58;;;;;;;17.77;93.97;101836.25;6561719;22;20095;-65
2021/06/05 00:49:17;;;;;;;23.40;21.13;;;;;;;17.74;94.38;101835.56;6562528;22;20011;-65
2021/06/05 00:51:53;;;;;;;24.17;21.83;;;;;;;17.78;95.27;101843.22;6559992;22;20006;-65
2021/06/05 00:54:25;;;;;;;23.25;21.15;;;;;;;17.71;95.51;101849.09;6561116;22;20330;-65
2021/06/05 00:56:59;;;;;;;24.83;22.52;;;;;;;17.73;95.80;101848.97;6560373;22;20019;-65
2021/06/05 00:59:30;;;;;;;24.35;22.00;;;;;;;17.67;95.94;101852.22;6535104;22;20074;-65
2021/06/05 01:02:02;;;;;;;24.00;21.65;;;;;;;17.67;95.56;101838.97;6560588;22;20037;-65
2021/06/05 01:04:34;;;;;;;24.60;22.10;;;;;;;17.63;96.17;101841.09;6562227;22;20354;-65
2021/06/05 01:07:16;;;;;;;23.98;21.67;;;;;;;17.69;96.17;101829.88;6561241;22;20064;-65
2021/06/05 01:09:58;;;;;;;26.15;23.63;;;;;;;17.66;95.46;101834.66;6562194;22;20056;-65
2021/06/05 01:12:47;;;;;;;24.58;22.35;;;;;;;17.74;94.75;101829.41;6561264;22;20525;-65
2021/06/05 01:15:33;;;;;;;27.95;25.05;;;;;;;17.61;96.47;101827.13;6561610;22;20030;-65
2021/06/05 01:18:19;;;;;;;27.20;24.38;;;;;;;17.67;96.66;101825.72;6562100;22;20007;-65
2021/06/05 01:21:09;;;;;;;27.65;24.70;;;;;;;17.75;96.17;101829.28;6561099;22;20014;-65
2021/06/05 01:23:58;;;;;;;29.25;26.27;;;;;;;17.75;96.85;101833.75;6562075;22;20007;-65
2021/06/05 01:26:36;;;;;;;28.30;25.38;;;;;;;17.73;96.42;101833.06;6562448;22;20017;-65
2021/06/05 01:29:17;;;;;;;28.38;25.13;;;;;;;17.75;96.20;101834.59;6562353;22;20003;-65
2021/06/05 01:31:57;;;;;;;29.35;26.45;;;;;;;17.76;95.76;101824.81;6530888;22;20007;-65
2021/06/05 01:34:31;;;;;;;29.70;26.92;;;;;;;17.77;96.26;101825.66;6561871;22;20049;-65
2021/06/05 01:37:03;;;;;;;32.80;29.27;;;;;;;17.75;96.88;101836.41;6561459;22;20445;-65
2021/06/05 01:39:38;;;;;;;35.28;30.05;;;;;;;17.77;97.07;101823.00;6561795;22;20038;-65
2021/06/05 01:42:27;;;;;;;35.38;31.20;;;;;;;17.81;96.46;101825.22;6558251;22;20003;-65
2021/06/05 01:44:59;;;;;;;35.08;31.30;;;;;;;17.74;96.02;101824.94;6561830;22;20373;-65
2021/06/05 01:47:31;;;;;;;34.38;30.80;;;;;;;17.74;96.46;101824.94;6531251;22;20010;-66
2021/06/05 01:50:06;;;;;;;37.90;32.23;;;;;;;17.70;97.22;101823.59;6560368;22;20341;-65
2021/06/05 01:52:39;;;;;;;37.83;33.75;;;;;;;17.71;97.37;101821.78;6559096;22;20387;-65
2021/06/05 01:55:22;;;;;;;36.13;31.45;;;;;;;17.81;96.36;101825.22;6559088;22;20003;-65
2021/06/05 01:57:57;;;;;;;36.65;32.78;;;;;;;17.80;97.52;101823.53;6558281;22;20447;-65
2021/06/05 02:00:36;;;;;;;36.10;32.20;;;;;;;17.82;97.73;101834.00;6530698;22;20013;-65
2021/06/05 02:03:09;;;;;;;39.72;34.53;;;;;;;17.77;98.18;101829.16;6561204;22;19999;-65
2021/06/05 02:05:41;;;;;;;41.40;34.13;;;;;;;17.80;97.84;101834.13;6532118;22;20082;-65
2021/06/05 02:08:16;;;;;;;43.75;36.47;;;;;;;17.77;98.31;101830.94;6561450;22;19999;-65
2021/06/05 02:10:48;;;;;;;40.72;35.22;;;;;;;17.74;98.22;101838.19;6559678;22;20026;-65
2021/06/05 02:13:25;;;;;;;46.05;36.50;;;;;;;17.75;98.63;101839.88;6561438;22;20380;-65
2021/06/05 02:16:00;;;;;;;41.88;36.80;;;;;;;17.70;99.25;101844.78;6559716;22;20018;-65
2021/06/05 02:18:34;;;;;;;40.22;35.88;;;;;;;17.69;98.93;101837.84;6561020;22;20011;-65
2021/06/05 02:21:16;;;;;;;48.30;38.17;;;;;;;17.76;99.13;101835.41;6559253;22;20003;-65
2021/06/05 02:24:12;;;;;;;44.60;39.80;;;;;;;17.82;98.83;101839.28;6561245;22;20013;-65
2021/06/05 02:26:44;;;;;;;46.70;40.30;;;;;;;17.77;99.18;101838.91;6533246;22;20010;-65
2021/06/05 02:29:20;;;;;;;51.83;42.08;;;;;;;17.79;98.69;101839.59;6561077;22;19999;-65
2021/06/05 02:31:52;;;;;;;48.65;42.65;;;;;;;17.72;98.80;101824.25;6531425;22;20007;-65
2021/06/05 02:34:26;;;;;;;52.92;45.33;;;;;;;17.77;99.45;101831.81;6561357;22;20049;-65
2021/06/05 02:37:02;;;;;;;53.20;46.53;;;;;;;17.79;99.56;101832.47;6533504;22;20011;-65
2021/06/05 02:39:34;;;;;;;52.75;45.75;;;;;;;17.78;99.12;101832.63;6560179;22;20087;-65
2021/06/05 02:42:14;;;;;;;60.30;49.83;;;;;;;17.86;99.52;101830.03;6558783;22;20052;-65
2021/06/05 02:44:50;;;;;;;59.35;52.60;;;;;;;17.80;98.76;101825.34;6561385;22;20007;-65
2021/06/05 02:47:25;;;;;;;62.75;55.88;;;;;;;17.78;98.94;101816.72;6560553;22;20007;-65
2021/06/05 02:50:00;;;;;;;65.32;57.65;;;;;;;17.76;99.24;101824.81;6532737;22;20731;-65
2021/06/05 02:52:32;;;;;;;67.28;59.85;;;;;;;17.75;98.51;101826.63;6559971;22;20003;-65
2021/06/05 02:55:12;;;;;;;63.88;57.15;;;;;;;17.81;98.12;101827.03;6559589;22;20308;-65
2021/06/05 02:57:44;;;;;;;67.13;60.13;;;;;;;17.67;98.16;101813.28;6559414;22;20011;-65
2021/06/05 03:00:27;;;;;;;65.70;58.60;;;;;;;17.75;97.85;101821.34;6560584;22;20483;-65
2021/06/05 03:02:59;;;;;;;65.70;59.03;;;;;;;17.68;98.08;101820.25;6560811;22;20304;-65
2021/06/05 03:05:33;;;;;;;65.13;58.45;;;;;;;17.70;97.68;101820.13;6560485;22;20033;-65
2021/06/05 03:08:09;;;;;;;65.25;58.63;;;;;;;17.69;98.41;101827.22;6560690;22;20007;-65
2021/06/05 03:10:41;;;;;;;65.88;59.20;;;;;;;17.71;98.35;101819.94;6559617;22;20342;-65
2021/06/05 03:13:12;;;;;;;66.80;59.88;;;;;;;17.70;98.32;101822.75;6561274;22;20004;-65
2021/06/05 03:15:45;;;;;;;65.22;58.75;;;;;;;17.79;98.20;101813.09;6561829;22;20007;-65
2021/06/05 03:18:20;;;;;;;69.90;62.38;;;;;;;17.69;98.11;101813.97;6533659;22;20007;-65
2021/06/05 03:20:53;;;;;;;68.40;61.42;;;;;;;17.68;97.62;101816.78;6559757;22;20074;-65
2021/06/05 03:23:28;;;;;;;70.35;63.05;;;;;;;17.72;98.43;101821.59;6561176;22;20003;-65
2021/06/05 03:26:01;;;;;;;68.65;61.75;;;;;;;17.71;97.92;101812.00;6560103;22;20578;-65
2021/06/05 03:28:34;;;;;;;71.10;64.05;;;;;;;17.67;98.34;101813.28;6561145;22;20003;-65
2021/06/05 03:31:07;;;;;;;70.97;63.42;;;;;;;17.69;98.12;101811.34;6559977;22;20438;-65
2021/06/05 03:33:38;;;;;;;68.28;61.33;;;;;;;17.70;98.47;101814.81;6533507;22;20007;-65
2021/06/05 03:36:10;;;;;;;71.47;64.13;;;;;;;17.75;98.37;101812.56;6560327;22;20070;-65
2021/06/05 03:38:44;;;;;;;73.13;65.72;;;;;;;17.72;98.21;101811.00;6560850;22;20007;-65
2021/06/05 03:41:15;;;;;;;70.97;63.70;;;;;;;17.71;98.63;101819.13;6560578;22;20018;-65
2021/06/05 03:43:47;;;;;;;72.82;65.57;;;;;;;17.71;98.30;101814.66;6560137;22;20003;-65
2021/06/05 03:46:18;;;;;;;72.30;64.93;;;;;;;17.73;98.18;101814.50;6559757;22;20006;-65
2021/06/05 03:48:49;;;;;;;70.93;63.50;;;;;;;17.70;97.86;101817.47;6560616;22;20031;-65
2021/06/05 03:51:21;;;;;;;72.57;64.97;;;;;;;17.72;98.64;101816.31;6559283;22;20010;-65
2021/06/05 03:53:53;;;;;;;73.50;66.20;;;;;;;17.74;98.34;101809.03;6560889;22;20010;-65
2021/06/05 03:56:24;;;;;;;72.32;64.97;;;;;;;17.77;98.48;101812.38;6559871;22;20022;-65
2021/06/05 03:58:55;;;;;;;74.30;66.55;;;;;;;17.70;98.65;101817.47;6558116;22;20030;-65
2021/06/05 04:01:28;;;;;;;76.18;67.95;;;;;;;17.73;98.18;101814.50;6553709;22;19999;-65
2021/06/05 04:04:00;;;;;;;;;;;;;;;17.97;96.74;101817.38;6565239;22;19999;-65
2021/06/05 04:06:32;;;;;;;69.28;62.22;;;;;;;17.78;97.73;101819.38;6562430;22;19917;-65
2021/06/05 04:09:05;;;;;;;77.47;69.15;;;;;;;17.71;98.74;101824.41;6562733;22;20011;-65
2021/06/05 04:11:36;;;;;;;74.40;66.60;;;;;;;17.74;97.46;101829.41;6563148;22;20438;-65
2021/06/05 04:14:10;;;;;;;76.85;68.80;;;;;;;17.74;98.43;101826.78;6563273;22;20129;-66
2021/06/05 04:16:41;;;;;;;77.45;68.95;;;;;;;17.70;98.12;101825.41;6561881;22;20007;-65
2021/06/05 04:19:13;;;;;;;82.88;73.65;;;;;;;17.69;98.29;101826.38;6562692;22;20054;-65
2021/06/05 04:21:44;;;;;;;77.67;69.27;;;;;;;17.71;98.23;101821.78;6562913;22;20014;-66
2021/06/05 04:24:15;;;;;;;79.25;70.57;;;;;;;17.69;98.21;101816.63;6562626;22;19999;-65
2021/06/05 04:26:47;;;;;;;80.85;69.45;;;;;;;17.72;98.79;101821.59;6562583;22;20003;-65
2021/06/05 04:29:18;;;;;;;81.93;72.27;;;;;;;17.76;98.30;101824.81;6563267;22;20003;-65
2021/06/05 04:31:50;;;;;;;78.83;69.97;;;;;;;17.77;98.55;101825.66;6564178;22;20022;-67
2021/06/05 04:34:21;;;;;;;78.80;70.28;;;;;;;17.76;98.11;101832.75;6563946;22;20011;-65
2021/06/05 04:36:53;;;;;;;76.22;68.05;;;;;;;17.79;97.83;101821.03;6563609;22;20025;-66
2021/06/05 04:39:24;;;;;;;80.03;70.60;;;;;;;17.76;98.26;101824.81;6564222;22;20037;-66
2021/06/05 04:41:56;;;;;;;80.05;71.13;;;;;;;17.80;97.76;101826.16;6564228;22;20082;-65
2021/06/05 04:44:28;;;;;;;85.93;72.73;;;;;;;17.76;98.46;101824.81;6563969;22;20034;-65
2021/06/05 04:46:59;;;;;;;87.65;73.95;;;;;;;17.75;98.91;101823.16;6563097;22;20003;-66
2021/06/05 04:49:30;;;;;;;92.35;74.32;;;;;;;17.73;98.76;101823.28;6564622;22;20015;-65
2021/06/05 04:52:02;;;;;;;95.72;77.57;;;;;;;17.70;98.88;101826.25;6564332;22;20041;-65
2021/06/05 04:54:34;;;;;;;84.40;74.10;;;;;;;17.71;98.84;101835.84;6535757;22;20011;-65
2021/06/05 04:57:05;;;;;;;99.77;78.27;;;;;;;17.70;98.84;101828.06;6450603;22;20117;-65
2021/06/05 04:59:37;;;;;;;90.65;75.25;;;;;;;17.72;98.93;101834.84;6432821;23;20016;-65
2021/06/05 05:02:08;;;;;;;93.82;76.88;;;;;;;17.69;98.71;101832.53;6431250;23;20432;-66
2021/06/05 05:04:43;;;;;;;92.60;75.83;;;;;;;17.71;98.51;101830.56;6431879;23;20000;-65
2021/06/05 05:07:14;;;;;;;94.40;75.20;;;;;;;17.74;98.36;101830.25;6431807;23;20009;-66
2021/06/05 05:09:46;;;;;;;96.05;76.15;;;;;;;17.78;99.00;101840.59;6431846;23;20122;-65
2021/06/05 05:12:18;;;;;;;91.60;74.50;;;;;;;17.73;98.84;101839.19;6431201;23;20370;-65
2021/06/05 05:14:49;;;;;;;97.97;78.90;;;;;;;17.75;98.16;101842.53;6429606;23;20004;-65
2021/06/05 05:17:21;;;;;;;103.53;79.23;;;;;;;17.66;98.03;101827.53;6429912;23;20001;-66
2021/06/05 05:19:52;;;;;;;99.78;78.45;;;;;;;17.71;97.81;101842.97;6430501;23;20016;-65
2021/06/05 05:22:23;;;;;;;102.53;78.83;;;;;;;17.72;97.65;101847.28;6430698;23;20001;-65
2021/06/05 05:24:55;;;;;;;93.83;77.77;;;;;;;17.66;97.70;101850.56;6429372;23;20316;-66
2021/06/05 05:27:26;;;;;;;98.43;76.90;;;;;;;17.63;97.66;101853.50;6430676;23;20017;-65
2021/06/05 05:29:58;;;;;;;99.63;79.80;;;;;;;17.61;98.14;101853.63;6430236;23;20062;-65
2021/06/05 05:32:29;;;;;;;104.53;80.15;;;;;;;17.59;98.40;101852.16;6430430;23;20009;-65
2021/06/05 05:35:01;;;;;;;94.55;77.30;;;;;;;17.60;98.20;101854.63;6429284;23;20432;-65
2021/06/05 05:37:33;;;;;;;97.40;77.30;;;;;;;17.56;98.43;101852.44;6429877;23;20499;-65
2021/06/05 05:40:06;;;;;;;103.00;79.93;;;;;;;17.49;98.27;101855.69;6533961;22;20012;-69
2021/06/05 05:42:37;;;;;;;;;;;;;;;17.75;96.62;101849.66;6431005;23;20490;-65
2021/06/05 05:45:10;;;;;;;105.22;77.35;;;;;;;17.44;97.73;101857.97;6428593;23;20036;-66
2021/06/05 05:47:41;;;;;;;113.13;82.68;;;;;;;17.45;98.01;101858.78;6429878;23;20009;-65
2021/06/05 05:50:15;;;;;;;107.72;79.00;;;;;;;17.40;97.92;101863.72;6533591;22;20012;-66
2021/06/05 05:52:47;;;;;;;108.95;79.82;;;;;;;17.37;98.07;101864.00;6428766;22;20382;-65
2021/06/05 05:55:18;;;;;;;108.10;74.82;;;;;;;17.34;97.70;101869.59;6430617;22;20012;-66
2021/06/05 05:57:50;;;;;;;104.68;74.68;;;;;;;17.33;97.30;101873.25;6429824;23;20029;-65
2021/06/05 06:00:31;;;;;;;105.63;75.57;;;;;;;17.36;97.59;101878.25;6427224;23;20440;-65
2021/06/05 06:03:03;;;;;;;114.78;77.57;;;;;;;17.22;97.53;101885.69;6425182;23;20009;-65
2021/06/05 06:05:35;;;;;;;115.45;79.13;;;;;;;17.25;98.52;101885.41;6532272;22;20008;-65
2021/06/05 06:08:08;;;;;;;125.47;79.73;;;;;;;17.18;98.26;101889.63;6429425;22;20019;-65
2021/06/05 06:10:41;;;;;;;120.65;78.80;;;;;;;17.19;98.67;101890.44;6426519;22;20008;-65
2021/06/05 06:13:12;;;;;;;119.40;78.32;;;;;;;17.15;99.15;101889.91;6428984;23;20012;-65
2021/06/05 06:15:43;;;;;;;118.90;76.00;;;;;;;17.11;98.26;101893.00;6531110;22;20013;-65
2021/06/05 06:18:16;;;;;;;130.73;79.85;;;;;;;17.10;98.73;101894.00;6428678;23;20009;-65
2021/06/05 06:20:50;;;;;;;133.13;80.32;;;;;;;17.07;98.85;101891.63;6428603;23;20017;-65
2021/06/05 06:23:25;;;;;;;117.75;75.55;;;;;;;17.07;98.80;101900.41;6429850;23;20534;-65
2021/06/05 06:25:59;;;;;;;115.10;74.75;;;;;;;17.07;98.62;101904.88;6427029;23;20013;-65
2021/06/05 06:28:34;;;;;;;125.85;78.63;;;;;;;17.07;99.79;101907.53;6428328;22;20384;-65
2021/06/05 06:31:07;;;;;;;120.50;74.25;;;;;;;17.05;98.90;101906.81;6532565;22;20519;-65
2021/06/05 06:33:38;;;;;;;113.18;72.50;;;;;;;17.09;98.77;101910.88;6533201;22;20009;-65
2021/06/05 06:36:11;;;;;;;112.78;70.35;;;;;;;17.09;98.68;101916.16;6429365;23;20313;-65
2021/06/05 06:38:45;;;;;;;107.13;70.63;;;;;;;17.14;98.68;101917.38;6424491;23;20008;-65
2021/06/05 06:41:24;;;;;;;105.60;69.20;;;;;;;17.26;98.55;101921.50;6429230;23;20016;-65
2021/06/05 06:43:58;;;;;;;101.40;67.38;;;;;;;17.27;98.19;101928.47;6429622;22;20500;-65
2021/06/05 06:46:35;;;;;;;98.88;68.05;;;;;;;17.25;98.85;101925.13;6508019;22;20569;-65
2021/06/05 06:49:07;;;;;;;91.50;63.35;;;;;;;17.29;97.94;101932.78;6428235;22;20020;-65
2021/06/05 06:51:39;;;;;;;95.72;64.00;;;;;;;17.25;98.18;101935.72;6429499;23;20074;-65
2021/06/05 06:54:13;;;;;;;87.13;58.63;;;;;;;17.35;98.10;101935.69;6429005;23;20005;-65
2021/06/05 06:56:44;;;;;;;84.53;58.45;;;;;;;17.38;97.58;101943.31;6429393;23;20016;-65
2021/06/05 06:59:16;;;;;;;86.18;56.80;;;;;;;17.37;96.88;101941.66;6427711;23;20162;-65
2021/06/05 07:01:47;;;;;;;79.43;54.15;;;;;;;17.43;96.86;101937.59;6427916;23;20088;-66
2021/06/05 07:04:19;;;;;;;76.03;52.70;;;;;;;17.48;96.51;101946.75;6427784;23;20296;-65
2021/06/05 07:06:50;;;;;;;72.90;51.50;;;;;;;17.43;96.12;101943.72;6429392;23;20447;-65
2021/06/05 07:09:21;;;;;;;78.83;54.13;;;;;;;17.44;97.53;101944.56;6429630;23;20012;-66
2021/06/05 07:11:53;;;;;;;74.40;50.78;;;;;;;17.57;97.05;101950.31;6427772;23;20005;-66
2021/06/05 07:14:24;;;;;;;70.28;50.72;;;;;;;17.59;96.22;101950.19;6429256;23;20258;-66
2021/06/05 07:16:57;;;;;;;71.32;50.20;;;;;;;17.65;96.46;101950.44;6429501;23;20005;-67
2021/06/05 07:19:28;;;;;;;66.57;46.97;;;;;;;17.66;96.16;101952.09;6429550;23;20009;-66
2021/06/05 07:22:02;;;;;;;66.00;47.08;;;;;;;17.74;96.35;101956.66;6427609;23;20005;-65
2021/06/05 07:24:33;;;;;;;66.00;46.22;;;;;;;17.73;95.40;101955.81;6429389;22;19997;-65
2021/06/05 07:27:05;;;;;;;60.10;43.85;;;;;;;17.70;95.09;101958.75;6532584;22;20065;-66
2021/06/05 07:29:36;;;;;;;62.03;44.90;;;;;;;17.79;94.67;101969.47;6428118;23;20629;-66
2021/06/05 07:32:08;;;;;;;58.80;43.07;;;;;;;17.79;94.43;101953.56;6426431;23;20012;-65
2021/06/05 07:34:39;;;;;;;51.63;40.07;;;;;;;17.87;94.58;101966.91;6428471;23;20005;-65
2021/06/05 07:37:11;;;;;;;56.30;41.67;;;;;;;17.79;95.08;101967.66;6427415;23;20044;-65
2021/06/05 07:39:42;;;;;;;53.65;39.33;;;;;;;17.91;94.39;101978.88;6428729;23;20012;-65
2021/06/05 07:42:14;;;;;;;50.72;40.25;;;;;;;17.94;94.92;101967.97;6428090;23;20058;-65
2021/06/05 07:44:46;;;;;;;47.77;37.70;;;;;;;17.97;93.80;101963.19;6428826;23;20134;-66
2021/06/05 07:47:17;;;;;;;46.95;36.58;;;;;;;18.03;93.65;101967.03;6428855;23;20232;-65
2021/06/05 07:49:49;;;;;;;45.45;35.30;;;;;;;18.03;93.22;101969.69;6531437;22;20020;-66
2021/06/05 07:52:24;;;;;;;47.25;35.22;;;;;;;18.00;93.32;101964.72;6425773;23;20011;-65
2021/06/05 07:54:55;;;;;;;44.45;34.88;;;;;;;18.02;92.66;101964.56;6428428;23;20050;-65
2021/06/05 07:57:27;;;;;;;44.17;35.22;;;;;;;18.05;93.18;101961.63;6425214;23;20021;-65
2021/06/05 07:59:58;;;;;;;48.33;36.63;;;;;;;18.04;93.96;101963.44;6426003;23;20009;-66
2021/06/05 08:02:30;;;;;;;51.25;37.83;;;;;;;18.03;94.51;101964.41;6427438;23;20055;-64
2021/06/05 08:05:01;;;;;;;54.30;38.43;;;;;;;17.97;94.05;101963.19;6427787;23;20134;-65
2021/06/05 08:07:32;;;;;;;52.00;38.25;;;;;;;17.96;93.61;101966.84;6425506;23;20533;-65
2021/06/05 08:10:08;;;;;;;57.17;40.90;;;;;;;17.97;94.65;101965.84;6530506;22;20110;-65
2021/06/05 08:12:40;;;;;;;50.65;38.03;;;;;;;17.90;93.17;101961.31;6426182;22;20019;-65
2021/06/05 08:15:16;;;;;;;50.00;38.55;;;;;;;17.85;93.34;101971.53;6427714;23;20036;-65
2021/06/05 08:17:47;;;;;;;50.47;39.95;;;;;;;17.84;94.38;101980.44;6427643;23;20005;-65
2021/06/05 08:20:24;;;;;;;54.08;39.25;;;;;;;17.87;93.55;101975.69;6530515;22;20009;-65
2021/06/05 08:22:56;;;;;;;59.00;41.78;;;;;;;17.83;94.40;101974.31;6427514;22;20005;-65
2021/06/05 08:25:28;;;;;;;54.72;41.15;;;;;;;17.81;93.75;101971.00;6418938;23;20888;-65
2021/06/05 08:27:59;;;;;;;61.23;41.47;;;;;;;17.89;94.50;101978.19;6411896;23;20382;-65
2021/06/05 08:30:52;;;;;;;57.53;42.58;;;;;;;17.87;93.77;101972.19;6526077;22;20521;-65
2021/06/05 08:33:24;;;;;;;65.93;46.67;;;;;;;17.86;94.83;101981.16;6423754;23;20352;-65
2021/06/05 08:35:56;;;;;;;66.10;48.87;;;;;;;17.82;94.58;101979.78;6425949;23;20009;-64
2021/06/05 08:38:29;;;;;;;62.95;48.70;;;;;;;17.83;94.72;101981.44;6426404;23;20028;-65
2021/06/05 08:41:20;;;;;;;68.82;49.65;;;;;;;17.87;94.88;101988.09;6424541;23;20060;-65
2021/06/05 08:43:56;;;;;;;68.90;50.65;;;;;;;17.73;94.04;101987.63;6425667;22;20818;-65
2021/06/05 08:46:32;;;;;;;72.65;51.33;;;;;;;17.67;95.12;101979.44;6424183;23;20008;-65
2021/06/05 08:49:21;;;;;;;73.72;51.70;;;;;;;17.67;94.73;101985.56;6425629;23;20016;-65
2021/06/05 08:52:04;;;;;;;74.50;51.55;;;;;;;17.62;94.12;101985.19;6426081;23;20017;-65
2021/06/05 08:54:35;;;;;;;;;;;;;;;17.88;92.94;101990.63;6428881;23;20005;-65
2021/06/05 08:57:19;;;;;;;69.80;48.37;;;;;;;17.64;94.84;101991.16;6428478;23;19938;-65
2021/06/05 08:59:51;;;;;;;76.43;47.95;;;;;;;17.52;94.87;101985.22;6424374;23;20041;-66
2021/06/05 09:02:25;;;;;;;72.20;49.97;;;;;;;17.53;95.33;101991.34;6425447;22;20012;-65
2021/06/05 09:04:57;;;;;;;73.95;47.38;;;;;;;17.44;94.26;101990.41;6423920;23;20005;-66
2021/06/05 09:07:29;;;;;;;65.03;45.45;;;;;;;17.44;93.83;101987.78;6428095;23;20008;-66
2021/06/05 09:10:00;;;;;;;62.63;44.53;;;;;;;17.52;93.96;101985.22;6427379;23;20432;-66
2021/06/05 09:12:31;;;;;;;70.38;46.15;;;;;;;17.54;94.97;101982.44;6427460;23;20012;-65
2021/06/05 09:15:04;;;;;;;65.15;44.00;;;;;;;17.56;93.70;101984.94;6426921;23;20419;-65
2021/06/05 09:17:45;;;;;;;63.78;43.00;;;;;;;17.56;93.22;101985.75;6428738;22;20100;-66
2021/06/05 09:20:33;;;;;;;58.05;41.47;;;;;;;17.63;93.39;101986.00;6427567;23;20009;-66
2021/06/05 09:23:39;;;;;;;62.00;42.63;;;;;;;17.74;92.96;101991.09;6428083;22;20008;-65
2021/06/05 09:26:24;;;;;;;60.38;42.08;;;;;;;17.71;93.99;101994.88;6427663;23;20453;-66
2021/06/05 09:29:11;;;;;;;69.22;44.63;;;;;;;17.75;93.62;101992.78;6531466;22;20036;-66
2021/06/05 09:32:01;;;;;;;67.97;46.83;;;;;;;17.69;94.33;101996.84;6425921;23;20038;-65
2021/06/05 09:34:37;;;;;;;68.22;45.47;;;;;;;17.53;94.67;101994.00;6426883;23;20375;-66
2021/06/05 09:37:32;;;;;;;70.80;46.35;;;;;;;17.67;93.38;101998.81;6426947;23;20009;-65
2021/06/05 09:40:19;;;;;;;67.82;44.78;;;;;;;17.78;93.83;101996.97;6426837;23;20074;-65
2021/06/05 09:43:16;;;;;;;60.08;42.15;;;;;;;17.87;93.68;101998.72;6428357;23;20008;-66
2021/06/05 09:46:04;;;;;;;63.65;41.42;;;;;;;17.98;92.75;102003.81;6427760;23;20009;-65
2021/06/05 09:48:44;;;;;;;56.78;40.55;;;;;;;18.05;93.24;102007.53;6427701;23;20361;-66
2021/06/05 09:51:35;;;;;;;56.53;39.83;;;;;;;18.14;92.40;102003.94;6427522;22;20005;-65
2021/06/05 09:54:11;;;;;;;53.33;37.30;;;;;;;18.12;91.83;102008.59;6427498;23;20448;-66
2021/06/05 09:56:45;;;;;;;50.55;36.97;;;;;;;18.05;91.81;102010.19;6531350;22;20028;-67
2021/06/05 09:59:27;;;;;;;53.42;38.40;;;;;;;18.13;92.12;102006.78;6428612;23;20558;-67
2021/06/05 10:01:58;;;;;;;53.47;37.67;;;;;;;18.12;91.75;102008.59;6426606;23;20009;-67
2021/06/05 10:04:34;;;;;;;45.78;35.72;;;;;;;18.16;90.92;102012.59;6428331;23;20027;-67
2021/06/05 10:07:23;;;;;;;44.25;34.03;;;;;;;18.19;90.60;102008.81;6428798;23;20592;-67
2021/06/05 10:10:25;;;;;;;43.20;33.03;;;;;;;18.23;91.08;102008.38;6428536;23;20084;-67
2021/06/05 10:12:59;;;;;;;40.78;32.08;;;;;;;18.29;89.93;102011.38;6428123;22;20255;-67
2021/06/05 10:15:51;;;;;;;38.10;31.25;;;;;;;18.38;89.81;102018.44;6427571;23;20073;-66
2021/06/05 10:18:44;;;;;;;40.67;31.85;;;;;;;18.51;90.58;102012.75;6426491;23;20004;-66
2021/06/05 10:21:30;;;;;;;40.95;32.03;;;;;;;18.58;90.18;102016.44;6530947;22;20009;-66
2021/06/05 10:24:24;;;;;;;38.58;32.38;;;;;;;18.47;89.20;102015.69;6429095;23;20011;-67
2021/06/05 10:26:58;;;;;;;32.55;28.50;;;;;;;18.27;87.88;102023.97;6428001;22;20013;-66
2021/06/05 10:29:35;;;;;;;28.88;25.90;;;;;;;18.19;88.40;102020.25;6428314;23;20005;-66
2021/06/05 10:32:10;;;;;;;27.75;24.88;;;;;;;18.08;88.86;102030.25;6427483;23;20029;-66
2021/06/05 10:35:28;;;;;;;27.33;24.50;;;;;;;18.20;88.45;102031.72;6428857;23;20001;-66
2021/06/05 10:38:17;;;;;;;27.98;25.10;;;;;;;18.10;89.10;102037.06;6431720;22;20009;-66
2021/06/05 10:40:52;;;;;;;27.42;24.52;;;;;;;18.02;89.01;102041.47;6530646;22;20004;-66
2021/06/05 10:43:24;;;;;;;26.20;23.50;;;;;;;18.07;88.19;102048.00;6428873;23;20005;-67
2021/06/05 10:45:57;;;;;;;27.52;24.48;;;;;;;18.16;88.02;102043.59;6428647;23;20007;-66
2021/06/05 10:48:32;;;;;;;25.38;22.60;;;;;;;18.20;89.04;102043.16;6429305;23;20016;-66
2021/06/05 10:51:11;;;;;;;25.05;22.42;;;;;;;18.23;87.76;102037.53;6427524;23;20028;-66
2021/06/05 10:53:50;;;;;;;23.02;20.75;;;;;;;18.27;86.75;102026.63;6531468;22;20087;-66
2021/06/05 10:56:55;;;;;;;22.95;20.70;;;;;;;18.56;87.69;102035.19;6427961;23;20028;-66
2021/06/05 10:59:41;;;;;;;24.85;22.30;;;;;;;18.76;88.00;102033.22;6428195;23;20004;-66
2021/06/05 11:02:40;;;;;;;22.27;19.98;;;;;;;19.00;87.14;102029.06;6426679;23;20028;-66
2021/06/05 11:05:18;;;;;;;23.42;21.02;;;;;;;19.16;86.04;102037.09;6426089;23;20009;-66
2021/06/05 11:08:14;;;;;;;23.65;21.30;;;;;;;19.41;85.43;102028.28;6528214;22;20016;-66
2021/06/05 11:11:00;;;;;;;23.75;21.42;;;;;;;19.41;85.99;102025.63;6424918;23;20005;-67
2021/06/05 11:13:31;;;;;;;22.77;20.70;;;;;;;19.47;85.32;102037.44;6428011;23;20023;-67
2021/06/05 11:16:08;;;;;;;21.17;19.37;;;;;;;19.35;83.71;102034.22;6427478;23;20016;-67
2021/06/05 11:18:44;;;;;;;23.33;21.13;;;;;;;19.33;83.31;102038.06;6427516;23;20005;-67
2021/06/05 11:21:22;;;;;;;23.15;21.05;;;;;;;19.50;84.87;102030.97;6426201;23;20436;-67
2021/06/05 11:23:56;;;;;;;21.60;19.20;;;;;;;19.62;82.32;102029.72;6531618;22;20088;-67
2021/06/05 11:26:34;;;;;;;18.77;16.98;;;;;;;19.90;81.83;102032.97;6427433;23;20023;-67
2021/06/05 11:29:14;;;;;;;19.60;17.35;;;;;;;20.11;81.40;102032.50;6426409;23;20073;-67
2021/06/05 11:31:56;;;;;;;22.20;19.83;;;;;;;20.36;81.79;102034.22;6415439;23;20004;-68
2021/06/05 11:34:36;;;;;;;19.67;17.80;;;;;;;20.50;79.35;102034.59;6419289;23;20339;-68
2021/06/05 11:37:13;;;;;;;19.63;17.83;;;;;;;20.53;77.82;102031.56;6424281;23;20333;-68
2021/06/05 11:40:09;;;;;;;19.50;17.55;;;;;;;20.58;78.25;102032.75;6425619;23;20008;-68
2021/06/05 11:42:51;;;;;;;19.48;17.67;;;;;;;20.57;78.65;102027.56;6427161;22;20005;-68
2021/06/05 11:45:22;;;;;;;21.33;19.38;;;;;;;20.48;77.78;102033.88;6426938;22;20417;-68
2021/06/05 11:47:53;;;;;;;21.70;19.53;;;;;;;20.45;76.41;102029.72;6425871;23;20106;-68